Time;durP1;ratioP1;P1;durP2;ratioP2;P2;SDS_P1;SDS_P2;PMS_P1;PMS_P2;Temp;Humidity;BMP_temperature;BMP_pressure;BME280_temperature;BME280_humidity;BME280_pressure;Samples;Min_cycle;Max_cycle;Signal;HPM_P1;HPM_P2
2022/06/17 00:00:15;;;;;;;4.85;3.35;;;;;;;13.95;89.22;102388.97;5071360;28;20025;-75
2022/06/17 00:02:41;;;;;;;6.07;4.10;;;;;;;13.93;89.30;102390.09;5051934;28;20126;-75
2022/06/17 00:05:08;;;;;;;4.78;3.45;;;;;;;13.91;88.97;102386.72;5069486;28;20040;-75
2022/06/17 00:07:34;;;;;;;6.07;4.32;;;;;;;13.89;89.49;102389.53;5070026;28;20024;-75
2022/06/17 00:10:00;;;;;;;5.55;3.67;;;;;;;13.91;88.92;102387.56;5067560;28;20024;-75
2022/06/17 00:12:25;;;;;;;8.88;3.88;;;;;;;13.91;89.36;102382.25;5070900;28;20426;-75
2022/06/17 00:17:34;;;;;;;8.60;4.15;;;;;;;13.96;87.97;102388.03;5071335;28;20085;-75
2022/06/17 00:20:00;;;;;;;7.35;4.70;;;;;;;13.96;87.79;102384.53;5065893;28;20036;-75
2022/06/17 00:22:26;;;;;;;6.45;4.43;;;;;;;14.03;86.04;102400.75;5071498;28;20750;-75
2022/06/17 00:24:53;;;;;;;6.22;3.58;;;;;;;14.07;83.88;102395.03;5070245;28;20030;-75
2022/06/17 00:27:18;;;;;;;7.45;3.38;;;;;;;14.09;84.17;102402.84;5071993;28;20020;-75
2022/06/17 00:29:44;;;;;;;4.60;2.65;;;;;;;14.10;84.06;102393.94;5067088;28;20036;-75
2022/06/17 00:32:09;;;;;;;5.40;3.33;;;;;;;14.12;83.39;102390.16;5086983;28;20045;-75
2022/06/17 00:34:35;;;;;;;4.78;3.58;;;;;;;14.01;83.94;102370.84;5070294;28;20136;-75
2022/06/17 00:37:02;;;;;;;5.93;3.50;;;;;;;14.13;84.82;102385.69;5066764;28;20043;-75
2022/06/17 00:39:31;;;;;;;5.55;3.58;;;;;;;14.13;84.37;102383.88;5070337;28;20032;-75
2022/06/17 00:42:07;;;;;;;5.50;2.85;;;;;;;14.02;84.66;102361.91;5071561;28;20035;-75
2022/06/17 00:44:54;;;;;;;6.05;3.60;;;;;;;14.13;85.14;102385.69;5067815;28;20086;-76
2022/06/17 00:47:52;;;;;;;4.72;3.58;;;;;;;14.10;86.40;102386.78;5068772;28;20024;-75
2022/06/17 00:50:20;;;;;;;11.60;5.72;;;;;;;13.98;88.18;102394.03;5069047;28;20111;-75
2022/06/17 00:53:07;;;;;;;7.03;4.50;;;;;;;13.92;89.65;102391.91;5087531;28;20039;-75
2022/06/17 00:56:08;;;;;;;8.40;5.43;;;;;;;13.83;90.42;102387.41;5068230;28;20499;-75
2022/06/17 00:58:57;;;;;;;10.70;4.60;;;;;;;13.79;91.36;102386.00;5068819;28;20032;-75
2022/06/17 01:01:23;;;;;;;4.85;3.53;;;;;;;13.74;88.18;102382.88;5062564;28;20105;-75
2022/06/17 01:03:52;;;;;;;6.05;3.60;;;;;;;13.86;88.12;102395.09;5013104;28;20397;-75
2022/06/17 01:06:24;;;;;;;4.85;3.67;;;;;;;13.89;86.17;102389.53;5050167;28;20021;-75
2022/06/17 01:11:43;;;;;;;5.70;4.28;;;;;;;13.86;90.20;102391.63;5048473;28;20047;-75
2022/06/17 01:14:11;;;;;;;8.45;4.18;;;;;;;13.84;90.25;102390.91;5032787;28;20017;-75
2022/06/17 01:16:40;;;;;;;6.03;4.45;;;;;;;13.83;90.75;102384.75;5032872;28;20112;-75
2022/06/17 01:19:40;;;;;;;9.25;4.68;;;;;;;13.81;91.38;102386.72;5047189;28;20025;-75
2022/06/17 01:22:27;;;;;;;6.18;4.55;;;;;;;13.79;91.54;102383.34;5026101;28;20025;-75
2022/06/17 01:25:15;;;;;;;10.95;5.55;;;;;;;13.73;93.96;102389.19;5046842;28;20021;-75
2022/06/17 01:27:47;;;;;;;9.23;4.78;;;;;;;13.51;94.41;102358.38;5049820;28;20090;-75
2022/06/17 01:30:17;;;;;;;7.00;5.05;;;;;;;13.54;95.59;102374.00;5030981;28;20056;-75
2022/06/17 01:32:51;;;;;;;9.27;6.13;;;;;;;13.51;95.71;102367.16;5050040;28;20052;-75
2022/06/17 01:35:19;;;;;;;8.77;5.80;;;;;;;13.50;95.94;102383.19;5046478;28;20152;-75
2022/06/17 01:37:45;;;;;;;11.52;6.30;;;;;;;13.51;96.67;102379.59;5049815;28;20024;-75
2022/06/17 01:40:11;;;;;;;8.15;4.97;;;;;;;13.52;96.56;102391.88;5048195;28;20037;-75
2022/06/17 01:42:39;;;;;;;8.82;5.72;;;;;;;13.47;97.20;102386.94;5031643;28;20514;-75
2022/06/17 01:45:07;;;;;;;7.45;5.35;;;;;;;13.45;96.86;102394.19;5032920;28;20044;-75
2022/06/17 01:47:33;;;;;;;7.32;5.22;;;;;;;13.42;97.70;102375.91;5050563;28;20037;-75
2022/06/17 01:50:07;;;;;;;14.45;6.80;;;;;;;13.33;97.62;102371.41;5029326;28;20037;-75
2022/06/17 01:52:36;;;;;;;11.07;6.38;;;;;;;13.39;98.21;102384.13;5032074;28;20037;-75
2022/06/17 01:55:08;;;;;;;11.90;7.75;;;;;;;13.38;98.19;102379.78;5029585;28;20025;-75
2022/06/17 01:57:39;;;;;;;12.15;6.60;;;;;;;13.36;98.12;102387.03;5050740;28;20032;-75
2022/06/17 02:00:11;;;;;;;9.30;5.88;;;;;;;13.32;97.35;102381.16;5049074;28;20023;-75
2022/06/17 02:02:39;;;;;;;12.45;7.07;;;;;;;13.23;97.46;102365.16;5042708;28;20496;-75
2022/06/17 02:05:09;;;;;;;8.88;6.07;;;;;;;13.28;97.09;102368.25;5064352;28;20036;-75
2022/06/17 02:07:38;;;;;;;6.88;5.10;;;;;;;13.38;96.71;102374.50;5070223;28;20028;-75
2022/06/17 02:10:04;;;;;;;9.20;6.30;;;;;;;13.26;96.15;102348.97;5068263;28;20032;-75
2022/06/17 02:12:30;;;;;;;10.00;5.40;;;;;;;13.33;96.25;102371.41;5065952;28;20028;-75
2022/06/17 02:14:57;;;;;;;11.75;6.18;;;;;;;13.32;98.11;102372.34;5085149;28;20488;-75
2022/06/17 02:17:32;;;;;;;11.13;6.13;;;;;;;13.29;97.39;102375.28;5069932;28;20035;-75
2022/06/17 02:19:58;;;;;;;9.93;6.97;;;;;;;13.31;98.62;102378.66;5064792;28;20369;-75
2022/06/17 02:22:29;;;;;;;7.68;5.65;;;;;;;13.32;98.69;102380.31;5067272;28;20033;-75
2022/06/17 02:25:11;;;;;;;10.00;7.47;;;;;;;13.31;98.20;102381.28;5064988;28;20119;-76
2022/06/17 02:27:38;;;;;;;7.65;5.10;;;;;;;13.19;98.15;102353.97;5069274;28;20028;-75
2022/06/17 02:30:06;;;;;;;11.98;5.90;;;;;;;13.33;97.88;102374.06;5069355;28;20064;-75
2022/06/17 02:32:32;;;;;;;6.47;4.88;;;;;;;13.21;97.51;102361.78;5067261;28;20089;-75
2022/06/17 02:35:09;;;;;;;9.75;5.03;;;;;;;13.35;96.69;102386.19;5068292;28;20039;-75
2022/06/17 02:37:34;;;;;;;10.15;5.75;;;;;;;13.37;96.90;102386.09;5070352;28;20024;-75
2022/06/17 02:40:03;;;;;;;9.32;5.53;;;;;;;13.25;96.58;102365.88;5069628;28;20035;-75
2022/06/17 02:42:32;;;;;;;9.30;5.85;;;;;;;13.36;96.78;102382.56;5069259;28;20021;-75
2022/06/17 02:45:01;;;;;;;9.55;6.05;;;;;;;13.32;96.71;102381.16;5064524;28;20095;-75
2022/06/17 02:47:28;;;;;;;8.40;5.32;;;;;;;13.31;97.20;102383.94;5068011;28;20492;-75
2022/06/17 02:49:54;;;;;;;13.27;7.78;;;;;;;13.30;96.86;102376.94;5066322;28;20395;-75
2022/06/17 02:52:27;;;;;;;6.68;5.72;;;;;;;13.27;96.82;102377.19;5067467;28;20037;-75
2022/06/17 02:54:56;;;;;;;9.57;5.63;;;;;;;13.14;96.88;102356.19;5068803;28;20029;-75
2022/06/17 02:57:25;;;;;;;7.32;5.15;;;;;;;13.28;96.11;102386.81;5067131;28;20048;-75
2022/06/17 03:00:14;;;;;;;8.38;5.45;;;;;;;13.20;96.70;102373.38;5070208;28;20439;-75
2022/06/17 03:02:47;;;;;;;10.35;7.05;;;;;;;13.19;96.29;102369.88;5069117;28;20113;-75
2022/06/17 03:05:25;;;;;;;10.30;6.85;;;;;;;13.16;96.98;102368.31;5068885;28;20031;-75
2022/06/17 03:07:52;;;;;;;10.32;6.40;;;;;;;13.15;96.73;102364.00;5055606;28;20033;-75
2022/06/17 03:10:24;;;;;;;6.50;5.13;;;;;;;13.01;96.47;102351.06;5065911;28;20037;-75
2022/06/17 03:12:55;;;;;;;9.85;7.00;;;;;;;13.13;96.35;102375.69;5084759;28;20085;-75
2022/06/17 03:15:22;;;;;;;8.05;5.65;;;;;;;13.09;96.26;102355.72;5067451;28;20105;-75
2022/06/17 03:17:48;;;;;;;9.40;6.22;;;;;;;13.03;95.69;102353.59;5068734;28;20025;-75
2022/06/17 03:20:22;;;;;;;7.75;5.50;;;;;;;13.09;95.65;102364.53;5065300;28;20044;-75
2022/06/17 03:22:50;;;;;;;7.93;5.13;;;;;;;13.08;95.84;102352.22;5066981;28;20029;-75
2022/06/17 03:25:19;;;;;;;8.07;5.78;;;;;;;13.11;95.22;102362.59;5069246;28;20029;-76
2022/06/17 03:27:51;;;;;;;8.30;5.85;;;;;;;12.99;95.16;102337.09;5084453;28;20374;-75
2022/06/17 03:30:22;;;;;;;8.75;6.25;;;;;;;13.05;95.23;102349.84;5067550;28;20430;-75
2022/06/17 03:32:59;;;;;;;8.18;5.63;;;;;;;13.17;94.45;102358.56;5069388;28;20052;-75
2022/06/17 03:35:31;;;;;;;12.27;6.10;;;;;;;13.12;94.76;102345.69;5058579;28;20021;-75
2022/06/17 03:38:12;;;;;;;8.93;5.13;;;;;;;13.25;94.28;102356.09;5065331;28;20033;-75
2022/06/17 03:40:45;;;;;;;11.32;6.93;;;;;;;13.26;93.73;102348.97;5075516;28;20029;-75
2022/06/17 03:43:17;;;;;;;9.05;6.60;;;;;;;13.42;92.90;102369.78;5064788;28;20056;-75
2022/06/17 03:45:48;;;;;;;11.38;6.10;;;;;;;13.51;92.59;102374.28;5071018;28;20469;-75
2022/06/17 03:48:32;;;;;;;;;;;;;;;13.63;92.74;102377.69;5073792;28;20021;-75
2022/06/17 03:50:58;;;;;;;10.32;5.75;;;;;;;13.59;91.87;102361.22;5069071;28;19956;-75
2022/06/17 03:53:28;;;;;;;8.48;5.88;;;;;;;13.63;90.98;102369.72;5067035;28;20067;-75
2022/06/17 03:55:57;;;;;;;12.75;6.10;;;;;;;13.67;90.98;102373.78;5069891;28;20523;-75
2022/06/17 03:58:23;;;;;;;7.38;5.45;;;;;;;13.63;90.13;102372.38;5072468;28;20024;-75
2022/06/17 04:00:48;;;;;;;11.27;6.15;;;;;;;13.57;90.12;102379.06;5068524;28;20040;-75
2022/06/17 04:03:21;;;;;;;13.60;6.38;;;;;;;13.47;89.95;102357.78;5069116;28;20073;-75
2022/06/17 04:05:52;;;;;;;5.35;4.68;;;;;;;13.60;90.31;102351.44;5071280;28;20082;-75
2022/06/17 04:08:18;;;;;;;7.25;4.82;;;;;;;13.70;90.59;102357.63;5067767;28;20033;-75
2022/06/17 04:10:43;;;;;;;7.53;4.88;;;;;;;13.76;90.33;102363.22;5068695;28;20082;-75
2022/06/17 04:13:15;;;;;;;8.40;5.13;;;;;;;13.72;89.79;102342.41;5070444;28;20032;-75
2022/06/17 04:15:49;;;;;;;7.03;4.00;;;;;;;13.81;89.02;102349.56;5071881;28;20028;-75
2022/06/17 04:18:14;;;;;;;7.07;4.57;;;;;;;13.97;89.38;102365.81;5072146;28;20488;-75
2022/06/17 04:20:51;;;;;;;9.02;4.70;;;;;;;14.07;88.49;102365.00;5068679;28;20040;-75
2022/06/17 04:23:25;;;;;;;8.70;5.63;;;;;;;14.15;87.63;102359.84;5086606;28;20032;-75
2022/06/17 04:25:59;;;;;;;7.13;4.47;;;;;;;14.25;88.25;102368.66;5068593;28;20082;-75
2022/06/17 04:28:35;;;;;;;12.18;4.75;;;;;;;14.30;87.64;102374.41;5068787;28;20402;-75
2022/06/17 04:31:06;;;;;;;5.55;4.05;;;;;;;14.28;86.89;102372.88;5070811;28;20174;-75
2022/06/17 04:33:52;;;;;;;7.15;4.63;;;;;;;14.26;87.46;102369.50;5070355;28;20032;-75
2022/06/17 04:36:23;;;;;;;6.90;4.78;;;;;;;14.22;87.56;102378.72;5080389;28;20024;-75
2022/06/17 04:39:02;;;;;;;7.40;4.78;;;;;;;14.18;89.01;102378.16;5070657;28;20328;-75
2022/06/17 04:41:31;;;;;;;10.27;4.72;;;;;;;13.98;nan;102346.25;5069461;28;20173;-75
2022/06/17 04:43:59;;;;;;;9.02;4.43;;;;;;;14.14;88.86;102376.75;5084783;28;20032;-75
2022/06/17 04:46:39;;;;;;;6.40;4.05;;;;;;;14.29;89.52;102391.31;5066291;28;20169;-75
2022/06/17 04:49:06;;;;;;;7.28;4.65;;;;;;;14.46;89.77;102383.66;5065930;28;20027;-75
2022/06/17 04:51:34;;;;;;;8.07;4.45;;;;;;;14.46;89.23;102375.69;5062849;28;20115;-75
2022/06/17 04:54:02;;;;;;;8.65;4.88;;;;;;;14.45;89.14;102379.31;5060101;28;21050;-75
2022/06/17 04:56:32;;;;;;;6.32;4.63;;;;;;;14.32;90.09;102358.34;5065864;28;20132;-75
2022/06/17 04:58:58;;;;;;;7.90;4.53;;;;;;;14.38;89.50;102379.88;5067541;28;20048;-75
2022/06/17 05:01:25;;;;;;;7.60;5.38;;;;;;;14.37;90.09;102387.97;5061236;28;20048;-75
2022/06/17 05:03:57;;;;;;;6.40;4.68;;;;;;;14.18;89.96;102351.63;5027909;28;20065;-75
2022/06/17 05:06:22;;;;;;;9.35;4.40;;;;;;;14.39;90.57;102386.88;5044010;28;20096;-75
2022/06/17 05:09:09;;;;;;;7.03;4.97;;;;;;;14.33;90.11;102370.66;5043451;28;20112;-75
2022/06/17 05:11:43;;;;;;;7.05;4.75;;;;;;;14.34;91.17;102372.31;5045666;28;20032;-71
2022/06/17 05:14:17;;;;;;;6.03;4.38;;;;;;;14.38;91.78;102379.03;5044854;28;20103;-71
2022/06/17 05:16:42;;;;;;;8.07;4.43;;;;;;;14.25;92.14;102360.72;5046162;28;20035;-73
2022/06/17 05:19:08;;;;;;;5.57;4.05;;;;;;;14.34;92.50;102372.31;5028111;28;20033;-72
2022/06/17 05:21:33;;;;;;;7.07;4.50;;;;;;;14.31;92.43;102352.19;5027400;28;20087;-72
2022/06/17 05:23:59;;;;;;;7.72;4.82;;;;;;;14.41;92.77;102368.13;5027665;28;20108;-72
2022/06/17 05:26:25;;;;;;;6.85;4.20;;;;;;;14.45;92.59;102368.69;5045804;28;20033;-73
2022/06/17 05:28:51;;;;;;;6.00;4.15;;;;;;;14.30;92.85;102334.56;5045182;28;20571;-74
2022/06/17 05:31:24;;;;;;;12.32;4.72;;;;;;;14.55;92.25;102366.94;5045788;28;20029;-74
2022/06/17 05:33:50;;;;;;;7.03;4.97;;;;;;;14.49;91.40;102347.03;5044459;28;20449;-73
2022/06/17 05:36:16;;;;;;;6.35;4.72;;;;;;;14.55;91.66;102353.66;5025689;28;20489;-73
2022/06/17 05:38:42;;;;;;;6.32;4.57;;;;;;;14.60;91.39;102362.88;5027578;28;20033;-73
2022/06/17 05:41:15;;;;;;;6.07;3.47;;;;;;;14.53;90.05;102340.47;5026808;28;20052;-74
2022/06/17 05:43:41;;;;;;;8.45;4.78;;;;;;;14.75;89.86;102355.31;5033544;28;20687;-73
2022/06/17 05:46:06;;;;;;;5.15;3.70;;;;;;;14.75;nan;102350.00;5009669;28;20442;-73
2022/06/17 05:48:31;;;;;;;5.32;4.00;;;;;;;14.92;88.23;102360.91;5026287;28;20029;-73
2022/06/17 05:50:57;;;;;;;6.03;3.58;;;;;;;14.95;87.82;102361.44;5026035;28;20116;-73
2022/06/17 05:53:22;;;;;;;6.45;3.50;;;;;;;15.09;88.12;102367.31;5043914;28;20434;-73
2022/06/17 05:55:50;;;;;;;8.90;4.15;;;;;;;15.20;88.09;102357.38;5024642;28;20227;-73
2022/06/17 05:58:16;;;;;;;12.95;3.67;;;;;;;15.18;88.61;102342.53;5041109;28;20079;-73
2022/06/17 06:00:42;;;;;;;4.90;3.30;;;;;;;15.32;89.17;102352.69;5026661;28;20025;-73
2022/06/17 06:03:15;;;;;;;5.68;2.90;;;;;;;15.38;89.31;102351.28;5045232;28;20056;-75
2022/06/17 06:05:40;;;;;;;6.15;3.95;;;;;;;15.23;87.62;102324.31;5029186;28;20106;-73
2022/06/17 06:08:06;;;;;;;4.72;3.03;;;;;;;15.13;87.20;102304.88;5003785;28;20123;-74
2022/06/17 06:10:31;;;;;;;5.13;3.30;;;;;;;15.33;87.32;102334.91;5028459;28;20033;-74
2022/06/17 06:12:57;;;;;;;4.22;3.42;;;;;;;15.54;87.36;102362.16;5048699;28;20167;-74
2022/06/17 06:15:50;;;;;;;5.65;3.83;;;;;;;15.63;87.52;102357.78;5029096;28;20028;-74
2022/06/17 06:18:22;;;;;;;4.82;3.75;;;;;;;15.62;86.52;102338.31;5044021;28;20523;-74
2022/06/17 06:20:48;;;;;;;4.15;3.75;;;;;;;15.68;86.08;102352.00;5047563;28;20032;-74
2022/06/17 06:23:13;;;;;;;7.28;3.47;;;;;;;15.72;86.43;102353.41;5012873;28;20076;-73
2022/06/17 06:25:39;;;;;;;3.22;2.28;;;;;;;15.78;85.93;102358.16;5045215;28;20112;-75
2022/06/17 06:28:17;;;;;;;6.97;3.78;;;;;;;15.77;85.23;102351.19;5028766;28;20029;-75
2022/06/17 06:30:43;;;;;;;4.38;3.35;;;;;;;15.72;84.96;102348.09;5046033;28;20020;-74
2022/06/17 06:33:10;;;;;;;6.55;3.90;;;;;;;15.64;85.68;102325.69;5045786;28;20032;-74
2022/06/17 06:35:39;;;;;;;5.20;3.20;;;;;;;15.78;85.38;102359.00;5027385;28;20024;-75
2022/06/17 06:38:05;;;;;;;9.00;3.17;;;;;;;15.84;85.82;102353.09;5047041;28;20460;-75
2022/06/17 06:40:31;;;;;;;5.20;3.45;;;;;;;15.82;86.21;102341.75;5047343;28;20638;-75
2022/06/17 06:42:58;;;;;;;3.95;2.97;;;;;;;16.00;87.16;102359.59;5027853;28;20037;-75
2022/06/17 06:45:27;;;;;;;4.97;3.25;;;;;;;15.88;86.77;102353.63;5028341;28;20041;-75
2022/06/17 06:47:55;;;;;;;8.02;2.53;;;;;;;16.08;86.84;102357.03;5028095;28;20106;-75
2022/06/17 06:50:24;;;;;;;8.05;3.42;;;;;;;16.12;86.14;102355.75;5027237;28;20025;-74
2022/06/17 06:52:49;;;;;;;5.78;3.42;;;;;;;16.09;84.75;102344.53;5047940;28;20028;-74
2022/06/17 06:55:15;;;;;;;8.70;4.03;;;;;;;16.21;84.82;102354.00;5046640;28;20108;-74
2022/06/17 06:57:45;;;;;;;3.72;2.88;;;;;;;16.38;85.04;102347.03;5029212;28;20498;-75
2022/06/17 07:00:15;;;;;;;4.10;3.08;;;;;;;16.57;85.04;102357.53;5029361;28;20260;-75
2022/06/17 07:02:40;;;;;;;4.82;3.10;;;;;;;16.72;84.88;102332.97;5061270;28;20471;-75
2022/06/17 07:05:06;;;;;;;4.93;3.42;;;;;;;16.91;83.99;102350.66;5048661;28;20032;-75
2022/06/17 07:07:31;;;;;;;5.25;3.20;;;;;;;16.81;83.61;102319.63;5082642;28;20132;-75
2022/06/17 07:09:56;;;;;;;4.35;3.33;;;;;;;17.13;84.13;102355.50;5066053;28;20475;-75
2022/06/17 07:12:22;;;;;;;4.32;3.45;;;;;;;17.04;83.44;102313.75;5065928;28;20102;-75
2022/06/17 07:14:47;;;;;;;5.28;3.60;;;;;;;17.49;82.24;102344.72;5066063;28;20016;-75
2022/06/17 07:17:14;;;;;;;5.32;3.90;;;;;;;17.48;81.49;102349.22;5066374;28;20035;-75
2022/06/17 07:19:39;;;;;;;4.30;3.50;;;;;;;17.54;81.44;102347.72;5068271;28;20063;-75
2022/06/17 07:22:05;;;;;;;3.95;2.90;;;;;;;17.59;81.48;102340.06;5085481;28;20324;-75
2022/06/17 07:24:30;;;;;;;7.72;3.05;;;;;;;17.71;80.78;102347.81;5070218;28;20064;-75
2022/06/17 07:26:56;;;;;;;3.30;2.58;;;;;;;17.78;80.76;102343.50;5070922;28;20385;-75
2022/06/17 07:29:21;;;;;;;5.32;3.28;;;;;;;17.60;79.44;102328.41;5052010;28;20031;-75
2022/06/17 07:31:46;;;;;;;5.07;3.17;;;;;;;17.81;80.51;102348.50;5069495;28;20090;-75
2022/06/17 07:34:12;;;;;;;4.07;2.95;;;;;;;17.82;80.23;102344.88;5067883;28;20033;-75
2022/06/17 07:42:05;;;;;;;7.35;3.22;;;;;;;17.89;78.68;102336.03;5069201;28;20544;-75
2022/06/17 07:44:32;;;;;;;6.03;2.88;;;;;;;17.86;78.42;102323.03;5067342;28;20129;-75
2022/06/17 07:46:57;;;;;;;6.47;3.50;;;;;;;17.98;78.43;102318.22;5069863;28;20074;-75
2022/06/17 07:49:22;;;;;;;10.70;3.40;;;;;;;18.35;78.48;102341.00;5068946;28;20396;-75
2022/06/17 07:51:48;;;;;;;4.47;2.70;;;;;;;18.47;78.20;102338.84;5070280;28;20437;-75
2022/06/17 07:54:15;;;;;;;6.28;2.47;;;;;;;18.89;76.17;102341.38;5071610;28;20032;-75
2022/06/17 07:56:40;;;;;;;5.00;2.65;;;;;;;19.05;75.28;102332.53;5085600;28;20041;-75
2022/06/17 07:59:06;;;;;;;5.00;2.92;;;;;;;19.26;73.91;102349.84;5035548;28;20039;-75
2022/06/17 08:01:31;;;;;;;4.43;2.72;;;;;;;19.32;73.43;102344.66;5068326;28;20071;-75
2022/06/17 08:03:57;;;;;;;4.57;2.95;;;;;;;19.51;74.07;102339.91;5066911;28;20116;-75
2022/06/17 08:06:22;;;;;;;4.22;2.55;;;;;;;19.66;71.90;102331.97;5069214;28;20036;-75
2022/06/17 08:08:48;;;;;;;4.40;3.13;;;;;;;19.87;71.63;102342.13;5051848;28;20025;-75
2022/06/17 08:11:14;;;;;;;3.85;2.78;;;;;;;20.36;71.42;102331.13;5050443;28;20128;-75
2022/06/17 08:13:39;;;;;;;3.85;3.10;;;;;;;21.07;69.96;102339.75;5069169;28;20037;-75
2022/06/17 08:16:08;;;;;;;11.48;2.60;;;;;;;21.24;68.59;102329.66;5068072;28;20028;-75
2022/06/17 08:18:35;;;;;;;4.38;2.65;;;;;;;20.84;69.88;102321.03;5066076;28;20020;-75
2022/06/17 08:21:00;;;;;;;6.90;2.60;;;;;;;21.00;67.77;102316.53;5067773;28;20492;-75
2022/06/17 08:23:26;;;;;;;2.95;2.20;;;;;;;21.71;68.02;102325.78;5051113;28;20029;-75
2022/06/17 08:25:52;;;;;;;3.08;2.30;;;;;;;22.15;64.47;102324.84;5066982;28;20032;-75
2022/06/17 08:28:18;;;;;;;4.25;2.38;;;;;;;22.06;64.21;102320.59;5069519;28;20154;-75
2022/06/17 08:30:47;;;;;;;8.32;2.33;;;;;;;21.79;64.30;102316.78;5066778;28;20039;-75
2022/06/17 08:33:13;;;;;;;6.20;2.47;;;;;;;21.57;63.97;102326.63;5068330;28;20021;-75
2022/06/17 08:35:42;;;;;;;4.60;2.35;;;;;;;21.63;66.65;102320.50;5081375;28;20488;-75
2022/06/17 08:38:13;;;;;;;5.53;2.03;;;;;;;21.42;65.09;102298.97;5067139;28;20069;-75
2022/06/17 08:40:56;;;;;;;3.72;1.88;;;;;;;21.92;65.04;102310.72;5068934;28;20051;-75
2022/06/17 08:43:46;;;;;;;4.78;2.63;;;;;;;22.40;65.23;102308.34;5068541;28;20104;-75
2022/06/17 08:46:20;;;;;;;4.70;2.53;;;;;;;22.74;63.38;102298.69;5083812;28;20059;-75
2022/06/17 08:48:57;;;;;;;3.80;2.58;;;;;;;23.04;63.01;102303.88;5066042;28;20059;-75
2022/06/17 08:51:46;;;;;;;2.33;2.10;;;;;;;23.45;60.38;102308.47;5068277;28;20335;-75
2022/06/17 08:54:14;;;;;;;3.67;2.55;;;;;;;23.44;60.28;102314.88;5076571;28;20031;-75
2022/06/17 08:56:49;;;;;;;4.57;2.58;;;;;;;22.94;60.52;102313.13;5067186;28;20032;-75
2022/06/17 08:59:36;;;;;;;3.53;1.95;;;;;;;23.30;61.91;102306.75;5084126;28;20415;-75
2022/06/17 09:02:24;;;;;;;5.30;2.35;;;;;;;22.77;59.98;102287.53;5067274;28;20139;-75
2022/06/17 09:05:34;;;;;;;5.38;1.90;;;;;;;22.74;61.56;102304.91;5078306;28;20077;-75
2022/06/17 09:08:30;;;;;;;3.25;2.08;;;;;;;22.53;62.21;102302.25;5067889;28;20032;-75
2022/06/17 09:11:24;;;;;;;4.75;2.78;;;;;;;22.77;61.69;102309.88;5067808;28;20085;-75
2022/06/17 09:14:20;;;;;;;2.90;2.20;;;;;;;22.63;63.36;102318.06;5069145;28;20036;-75
2022/06/17 09:16:58;;;;;;;4.68;2.53;;;;;;;22.31;63.90;102304.13;5066231;28;20031;-75
2022/06/17 09:19:31;;;;;;;9.27;2.90;;;;;;;22.00;64.19;102299.84;5059231;28;20028;-75
2022/06/17 09:22:27;;;;;;;3.70;2.47;;;;;;;21.94;64.05;102295.25;5066237;28;20189;-75
2022/06/17 09:24:56;;;;;;;7.05;2.90;;;;;;;21.84;65.92;102275.88;5067246;28;20316;-75
2022/06/17 09:27:30;;;;;;;5.55;2.50;;;;;;;21.94;65.43;102288.00;5067487;28;20495;-75
2022/06/17 09:30:11;;;;;;;8.32;3.30;;;;;;;21.77;65.60;102287.41;5065480;28;20103;-75
2022/06/17 09:32:55;;;;;;;3.92;2.40;;;;;;;21.91;65.66;102287.56;5067971;28;20055;-75
2022/06/17 09:35:37;;;;;;;5.45;2.75;;;;;;;22.14;65.33;102288.19;5065335;28;20025;-75
2022/06/17 09:38:21;;;;;;;3.28;2.20;;;;;;;22.47;64.64;102281.50;5062990;28;20020;-75
2022/06/17 09:40:59;;;;;;;3.42;2.45;;;;;;;22.26;63.97;102285.06;5067051;28;20047;-75
2022/06/17 09:43:32;;;;;;;4.90;2.80;;;;;;;22.92;63.69;102280.16;5055025;28;20440;-75
2022/06/17 09:46:08;;;;;;;4.60;2.78;;;;;;;23.44;61.72;102277.16;5083210;28;20024;-75
2022/06/17 09:48:49;;;;;;;3.55;2.33;;;;;;;24.46;59.14;102281.56;5082517;28;20086;-74
2022/06/17 09:51:24;;;;;;;4.78;2.75;;;;;;;25.38;57.82;102268.13;5065139;28;20034;-74
2022/06/17 09:54:23;;;;;;;8.20;2.63;;;;;;;25.47;55.11;102268.72;5068353;28;20024;-75
2022/06/17 09:57:01;;;;;;;7.78;2.90;;;;;;;24.63;56.52;102272.03;5083486;28;20029;-76
2022/06/17 09:59:44;;;;;;;6.93;2.58;;;;;;;23.93;57.60;102259.91;5067745;28;20033;-75
2022/06/17 10:02:19;;;;;;;8.18;2.88;;;;;;;23.56;58.83;102270.16;5066050;28;20478;-75
2022/06/17 10:04:44;;;;;;;3.20;2.53;;;;;;;23.39;60.85;102262.44;5068599;28;20028;-75
2022/06/17 10:08:02;;;;;;;2.80;2.03;;;;;;;23.30;60.86;102258.25;5066485;28;20027;-75
2022/06/17 10:10:44;;;;;;;4.55;2.63;;;;;;;23.17;60.19;102267.09;5044445;28;20123;-76
2022/06/17 10:14:01;;;;;;;3.35;1.80;;;;;;;23.10;61.74;102276.16;5063522;28;20075;-75
2022/06/17 10:20:28;;;;;;;6.63;2.58;;;;;;;22.89;61.08;102282.44;5061704;28;20047;-74
2022/06/17 10:22:59;;;;;;;3.33;2.25;;;;;;;22.85;62.00;102283.88;5067187;28;20093;-76
2022/06/17 10:25:42;;;;;;;4.85;2.88;;;;;;;22.88;62.89;102273.50;5067665;28;20028;-76
2022/06/17 10:28:17;;;;;;;3.95;2.30;;;;;;;22.84;63.72;102269.56;5066459;28;20115;-76
2022/06/17 10:30:58;;;;;;;4.40;2.47;;;;;;;22.93;64.02;102262.16;5066823;28;20444;-76
2022/06/17 10:33:23;;;;;;;5.13;2.63;;;;;;;22.84;63.97;102272.25;5068533;28;20028;-75
2022/06/17 10:35:49;;;;;;;7.38;3.33;;;;;;;22.77;64.06;102274.88;5067381;28;20039;-75
2022/06/17 10:38:24;;;;;;;7.53;2.53;;;;;;;22.99;63.89;102286.44;5066718;28;20039;-75
2022/06/17 10:40:49;;;;;;;3.90;2.28;;;;;;;23.13;64.13;102281.16;5068105;28;20020;-75
2022/06/17 10:43:20;;;;;;;4.10;2.65;;;;;;;23.07;63.48;102272.00;5068673;28;20040;-75
2022/06/17 10:45:46;;;;;;;4.13;2.60;;;;;;;22.85;64.39;102273.09;5067891;28;20343;-74
2022/06/17 10:48:47;;;;;;;5.60;2.92;;;;;;;22.97;63.96;102283.13;5065346;28;20063;-75
2022/06/17 10:51:13;;;;;;;5.45;1.95;;;;;;;23.18;64.78;102262.53;5064239;28;20108;-74
2022/06/17 10:54:02;;;;;;;4.25;2.85;;;;;;;23.46;62.27;102277.81;5066556;28;20036;-74
2022/06/17 10:56:36;;;;;;;6.40;2.50;;;;;;;23.66;62.09;102281.38;5082231;28;20504;-74
2022/06/17 10:59:07;;;;;;;3.13;1.88;;;;;;;24.01;62.99;102273.22;5066493;28;20503;-74
2022/06/17 11:01:45;;;;;;;7.90;2.42;;;;;;;24.33;59.50;102281.56;5066823;28;20055;-74
2022/06/17 11:04:29;;;;;;;4.88;2.08;;;;;;;24.17;58.29;102256.66;5050685;28;20073;-74
2022/06/17 11:07:05;;;;;;;4.97;1.75;;;;;;;25.03;58.91;102263.84;5047733;28;20078;-74
2022/06/17 11:09:37;;;;;;;4.07;2.35;;;;;;;25.53;56.72;102262.44;5032346;28;20302;-75
2022/06/17 11:12:10;;;;;;;5.47;2.47;;;;;;;25.49;55.05;102269.31;5049808;28;20021;-74
2022/06/17 11:14:48;;;;;;;4.65;2.05;;;;;;;25.50;55.78;102262.84;5051557;28;20380;-74
2022/06/17 11:17:24;;;;;;;1.95;1.58;;;;;;;25.70;56.10;102246.56;5050444;28;20028;-74
2022/06/17 11:19:55;;;;;;;3.53;2.05;;;;;;;25.96;55.43;102269.94;5051298;28;20431;-74
2022/06/17 11:22:30;;;;;;;3.80;2.10;;;;;;;26.39;55.43;102263.75;5031275;28;20485;-75
2022/06/17 11:25:31;;;;;;;3.33;1.98;;;;;;;26.68;52.77;102265.81;5050788;28;20025;-75
2022/06/17 11:28:11;;;;;;;3.25;2.05;;;;;;;26.33;52.46;102237.59;4979156;28;20042;-75
2022/06/17 11:30:48;;;;;;;3.22;2.28;;;;;;;26.29;52.41;102269.69;4973957;28;20034;-74
2022/06/17 11:33:26;;;;;;;2.50;1.85;;;;;;;25.78;54.07;102263.34;4981870;28;20059;-74
2022/06/17 11:36:02;;;;;;;2.80;1.92;;;;;;;25.45;54.31;102240.00;4970560;28;20057;-74
2022/06/17 11:38:31;;;;;;;4.05;1.73;;;;;;;25.83;54.44;102249.19;4971512;28;20329;-74
2022/06/17 11:40:57;;;;;;;8.00;2.72;;;;;;;25.36;54.37;102246.72;4988456;28;20028;-75
2022/06/17 11:43:42;;;;;;;2.97;1.85;;;;;;;25.75;54.23;102239.44;4988820;28;20113;-74
2022/06/17 11:46:09;;;;;;;2.97;1.60;;;;;;;26.15;54.60;102233.75;4987894;28;20046;-75
2022/06/17 11:48:40;;;;;;;2.60;2.10;;;;;;;26.51;52.79;102221.38;4968923;28;20034;-74
2022/06/17 11:51:26;;;;;;;2.72;2.00;;;;;;;26.37;52.53;102219.84;4986320;28;20066;-75
2022/06/17 11:53:54;;;;;;;3.10;2.80;;;;;;;27.31;51.16;102196.13;4988629;28;20034;-75
2022/06/17 11:56:27;;;;;;;3.15;2.15;;;;;;;26.89;51.29;102206.81;4969992;28;20030;-74
2022/06/17 11:58:59;;;;;;;3.72;1.60;;;;;;;27.11;52.61;102214.50;4986052;28;20188;-75
2022/06/17 12:01:24;;;;;;;2.75;2.30;;;;;;;27.43;50.89;102218.69;4991899;28;20022;-74